Perry, Utah
Current Conditions -  °F | °C
As of 1:55 PM on Thursday 18 Dec 2014 (Local Time) from KBMC Reporting Station
Broken Clouds Broken Clouds  
Wind Chill: 39°   Ceiling: 3400
Heat Index: 42°   Visibility: 7mi
Dew Point: 32°   Wind: 5mph
Humidity: 68%   Direction: 220°SW
Pressure: 30.14"   Gusts: NA
Location:  41.4833°N, 112.095°W
Report Text: KBMC 182055Z AUTO 22004KT 7SM SCT021 SCT027 BKN034 05/00 A3014 RMK AO1 T00531001
Loading
Personal Weather Stations






























Interactive Weather Map New forecast layout! Learn more

10-Day Weather Forecast

Advertisements
Track Severe Weather on mobile